sensor_id;sensor_type;location;lat;lon;timestamp;P1;durP1;ratioP1;P2;durP2;ratioP2
55609;SDS011;41486;52.502;13.486;2023-09-12T00:02:19;9.77;;;6.82;;
55609;SDS011;41486;52.502;13.486;2023-09-12T00:04:47;11.50;;;7.20;;
55609;SDS011;41486;52.502;13.486;2023-09-12T00:07:17;11.80;;;7.85;;
55609;SDS011;41486;52.502;13.486;2023-09-12T00:09:45;9.73;;;7.00;;
55609;SDS011;41486;52.502;13.486;2023-09-12T00:12:14;11.82;;;7.38;;
55609;SDS011;41486;52.502;13.486;2023-09-12T00:14:43;11.02;;;6.85;;
55609;SDS011;41486;52.502;13.486;2023-09-12T00:17:11;13.75;;;8.25;;
55609;SDS011;41486;52.502;13.486;2023-09-12T00:19:40;13.93;;;7.40;;
55609;SDS011;41486;52.502;13.486;2023-09-12T00:22:09;10.55;;;7.45;;
55609;SDS011;41486;52.502;13.486;2023-09-12T00:24:37;8.68;;;6.70;;
55609;SDS011;41486;52.502;13.486;2023-09-12T00:27:05;11.82;;;7.68;;
55609;SDS011;41486;52.502;13.486;2023-09-12T00:29:35;11.55;;;7.75;;
55609;SDS011;41486;52.502;13.486;2023-09-12T00:32:03;11.30;;;7.15;;
55609;SDS011;41486;52.502;13.486;2023-09-12T00:34:31;9.07;;;7.05;;
55609;SDS011;41486;52.502;13.486;2023-09-12T00:37:01;9.82;;;7.47;;
55609;SDS011;41486;52.502;13.486;2023-09-12T00:39:29;11.68;;;7.72;;
55609;SDS011;41486;52.502;13.486;2023-09-12T00:41:57;11.15;;;6.97;;
55609;SDS011;41486;52.502;13.486;2023-09-12T00:44:25;9.85;;;7.10;;
55609;SDS011;41486;52.502;13.486;2023-09-12T00:46:53;8.10;;;6.75;;
55609;SDS011;41486;52.502;13.486;2023-09-12T00:49:24;10.35;;;7.68;;
55609;SDS011;41486;52.502;13.486;2023-09-12T00:51:53;11.95;;;7.90;;
55609;SDS011;41486;52.502;13.486;2023-09-12T00:54:25;9.93;;;7.60;;
55609;SDS011;41486;52.502;13.486;2023-09-12T00:56:53;9.73;;;7.28;;
55609;SDS011;41486;52.502;13.486;2023-09-12T00:59:21;10.85;;;7.43;;
55609;SDS011;41486;52.502;13.486;2023-09-12T01:01:50;9.40;;;7.20;;
55609;SDS011;41486;52.502;13.486;2023-09-12T01:04:19;13.70;;;7.85;;
55609;SDS011;41486;52.502;13.486;2023-09-12T01:07:02;15.13;;;7.40;;
55609;SDS011;41486;52.502;13.486;2023-09-12T01:09:32;14.02;;;8.02;;
55609;SDS011;41486;52.502;13.486;2023-09-12T01:12:01;10.40;;;7.43;;
55609;SDS011;41486;52.502;13.486;2023-09-12T01:14:29;10.73;;;6.85;;
55609;SDS011;41486;52.502;13.486;2023-09-12T01:16:58;12.45;;;7.03;;
55609;SDS011;41486;52.502;13.486;2023-09-12T01:19:27;10.43;;;7.22;;
55609;SDS011;41486;52.502;13.486;2023-09-12T01:22:15;12.68;;;7.18;;
55609;SDS011;41486;52.502;13.486;2023-09-12T01:27:59;10.25;;;6.97;;
55609;SDS011;41486;52.502;13.486;2023-09-12T01:30:31;9.52;;;7.35;;
55609;SDS011;41486;52.502;13.486;2023-09-12T01:33:00;9.23;;;7.88;;
55609;SDS011;41486;52.502;13.486;2023-09-12T01:35:29;10.57;;;7.88;;
55609;SDS011;41486;52.502;13.486;2023-09-12T01:37:57;14.20;;;7.82;;
55609;SDS011;41486;52.502;13.486;2023-09-12T01:40:27;11.00;;;7.95;;
55609;SDS011;41486;52.502;13.486;2023-09-12T01:43:03;10.30;;;7.72;;
55609;SDS011;41486;52.502;13.486;2023-09-12T01:45:32;11.35;;;7.72;;
55609;SDS011;41486;52.502;13.486;2023-09-12T01:48:01;10.30;;;7.95;;
55609;SDS011;41486;52.502;13.486;2023-09-12T01:50:31;14.85;;;8.00;;
55609;SDS011;41486;52.502;13.486;2023-09-12T01:53:01;10.52;;;7.80;;
55609;SDS011;41486;52.502;13.486;2023-09-12T01:55:30;10.77;;;7.55;;
55609;SDS011;41486;52.502;13.486;2023-09-12T01:57:59;11.85;;;7.35;;
55609;SDS011;41486;52.502;13.486;2023-09-12T02:00:28;10.20;;;8.05;;
55609;SDS011;41486;52.502;13.486;2023-09-12T02:02:57;11.00;;;8.13;;
55609;SDS011;41486;52.502;13.486;2023-09-12T02:05:25;13.45;;;7.72;;
55609;SDS011;41486;52.502;13.486;2023-09-12T02:07:54;11.77;;;8.02;;
55609;SDS011;41486;52.502;13.486;2023-09-12T02:10:22;10.48;;;7.88;;
55609;SDS011;41486;52.502;13.486;2023-09-12T02:12:50;11.02;;;7.60;;
55609;SDS011;41486;52.502;13.486;2023-09-12T02:15:18;9.85;;;7.10;;
55609;SDS011;41486;52.502;13.486;2023-09-12T02:17:47;18.58;;;9.05;;
55609;SDS011;41486;52.502;13.486;2023-09-12T02:20:18;11.75;;;7.53;;
55609;SDS011;41486;52.502;13.486;2023-09-12T02:22:47;13.88;;;7.65;;
55609;SDS011;41486;52.502;13.486;2023-09-12T02:25:15;10.98;;;7.90;;
55609;SDS011;41486;52.502;13.486;2023-09-12T02:27:45;11.20;;;7.53;;
55609;SDS011;41486;52.502;13.486;2023-09-12T02:30:13;14.13;;;7.25;;
55609;SDS011;41486;52.502;13.486;2023-09-12T02:32:42;11.38;;;8.02;;
55609;SDS011;41486;52.502;13.486;2023-09-12T02:35:11;10.07;;;7.65;;
55609;SDS011;41486;52.502;13.486;2023-09-12T02:37:39;11.32;;;7.35;;
55609;SDS011;41486;52.502;13.486;2023-09-12T02:40:08;12.50;;;8.15;;
55609;SDS011;41486;52.502;13.486;2023-09-12T02:42:38;12.15;;;7.22;;
55609;SDS011;41486;52.502;13.486;2023-09-12T02:45:07;12.55;;;7.75;;
55609;SDS011;41486;52.502;13.486;2023-09-12T02:47:35;12.80;;;7.53;;
55609;SDS011;41486;52.502;13.486;2023-09-12T02:50:04;10.35;;;7.78;;
55609;SDS011;41486;52.502;13.486;2023-09-12T02:52:34;11.98;;;7.97;;
55609;SDS011;41486;52.502;13.486;2023-09-12T02:55:02;9.38;;;7.40;;
55609;SDS011;41486;52.502;13.486;2023-09-12T02:57:30;10.85;;;7.93;;
55609;SDS011;41486;52.502;13.486;2023-09-12T02:59:58;14.10;;;7.43;;
55609;SDS011;41486;52.502;13.486;2023-09-12T03:02:27;9.77;;;8.20;;
55609;SDS011;41486;52.502;13.486;2023-09-12T03:04:56;9.75;;;7.65;;
55609;SDS011;41486;52.502;13.486;2023-09-12T03:07:23;14.05;;;8.55;;
55609;SDS011;41486;52.502;13.486;2023-09-12T03:09:53;11.45;;;8.20;;
55609;SDS011;41486;52.502;13.486;2023-09-12T03:12:21;9.88;;;7.97;;
55609;SDS011;41486;52.502;13.486;2023-09-12T03:14:49;9.70;;;7.65;;
55609;SDS011;41486;52.502;13.486;2023-09-12T03:17:17;12.35;;;8.52;;
55609;SDS011;41486;52.502;13.486;2023-09-12T03:19:45;10.07;;;8.25;;
55609;SDS011;41486;52.502;13.486;2023-09-12T03:22:13;12.40;;;7.90;;
55609;SDS011;41486;52.502;13.486;2023-09-12T03:24:41;11.88;;;8.77;;
55609;SDS011;41486;52.502;13.486;2023-09-12T03:27:13;10.07;;;8.30;;
55609;SDS011;41486;52.502;13.486;2023-09-12T03:29:41;14.57;;;8.13;;
55609;SDS011;41486;52.502;13.486;2023-09-12T03:32:09;10.45;;;7.88;;
55609;SDS011;41486;52.502;13.486;2023-09-12T03:34:37;9.65;;;7.50;;
55609;SDS011;41486;52.502;13.486;2023-09-12T03:37:05;9.25;;;7.65;;
55609;SDS011;41486;52.502;13.486;2023-09-12T03:39:35;12.10;;;8.68;;
55609;SDS011;41486;52.502;13.486;2023-09-12T03:42:03;11.80;;;8.45;;
55609;SDS011;41486;52.502;13.486;2023-09-12T03:44:34;10.95;;;8.07;;
55609;SDS011;41486;52.502;13.486;2023-09-12T03:47:04;13.27;;;9.13;;
55609;SDS011;41486;52.502;13.486;2023-09-12T03:49:32;14.07;;;8.98;;
55609;SDS011;41486;52.502;13.486;2023-09-12T03:52:00;13.85;;;8.90;;
55609;SDS011;41486;52.502;13.486;2023-09-12T03:54:29;12.30;;;8.48;;
55609;SDS011;41486;52.502;13.486;2023-09-12T03:56:57;14.20;;;9.10;;
55609;SDS011;41486;52.502;13.486;2023-09-12T03:59:25;14.45;;;9.25;;
55609;SDS011;41486;52.502;13.486;2023-09-12T04:01:54;16.23;;;9.57;;
55609;SDS011;41486;52.502;13.486;2023-09-12T04:04:23;12.35;;;9.40;;
55609;SDS011;41486;52.502;13.486;2023-09-12T04:06:51;12.30;;;9.40;;
55609;SDS011;41486;52.502;13.486;2023-09-12T04:09:19;12.02;;;8.45;;
55609;SDS011;41486;52.502;13.486;2023-09-12T04:11:47;14.20;;;10.23;;
55609;SDS011;41486;52.502;13.486;2023-09-12T04:14:18;10.60;;;8.27;;
55609;SDS011;41486;52.502;13.486;2023-09-12T04:16:46;10.90;;;8.68;;
55609;SDS011;41486;52.502;13.486;2023-09-12T04:19:16;13.55;;;9.30;;
55609;SDS011;41486;52.502;13.486;2023-09-12T04:21:44;16.20;;;9.43;;
55609;SDS011;41486;52.502;13.486;2023-09-12T04:24:12;16.58;;;8.65;;
55609;SDS011;41486;52.502;13.486;2023-09-12T04:26:40;10.88;;;8.25;;
55609;SDS011;41486;52.502;13.486;2023-09-12T04:29:10;13.38;;;8.57;;
55609;SDS011;41486;52.502;13.486;2023-09-12T04:31:38;12.20;;;9.15;;
55609;SDS011;41486;52.502;13.486;2023-09-12T04:34:06;11.52;;;8.60;;
55609;SDS011;41486;52.502;13.486;2023-09-12T04:36:36;14.50;;;9.07;;
55609;SDS011;41486;52.502;13.486;2023-09-12T04:39:04;13.88;;;8.77;;
55609;SDS011;41486;52.502;13.486;2023-09-12T04:41:33;13.02;;;8.20;;
55609;SDS011;41486;52.502;13.486;2023-09-12T04:44:01;11.52;;;7.85;;
55609;SDS011;41486;52.502;13.486;2023-09-12T04:46:29;11.45;;;8.35;;
55609;SDS011;41486;52.502;13.486;2023-09-12T04:48:57;14.15;;;9.95;;
55609;SDS011;41486;52.502;13.486;2023-09-12T04:51:25;14.55;;;9.52;;
55609;SDS011;41486;52.502;13.486;2023-09-12T04:53:55;14.50;;;10.57;;
55609;SDS011;41486;52.502;13.486;2023-09-12T04:56:23;13.57;;;9.05;;
55609;SDS011;41486;52.502;13.486;2023-09-12T04:58:51;10.98;;;8.32;;
55609;SDS011;41486;52.502;13.486;2023-09-12T05:01:19;14.07;;;9.07;;
55609;SDS011;41486;52.502;13.486;2023-09-12T05:03:48;10.60;;;8.38;;
55609;SDS011;41486;52.502;13.486;2023-09-12T05:06:16;10.95;;;9.05;;
55609;SDS011;41486;52.502;13.486;2023-09-12T05:08:44;12.32;;;9.07;;
55609;SDS011;41486;52.502;13.486;2023-09-12T05:11:13;12.30;;;8.73;;
55609;SDS011;41486;52.502;13.486;2023-09-12T05:13:42;13.05;;;9.80;;
55609;SDS011;41486;52.502;13.486;2023-09-12T05:16:10;26.73;;;10.65;;
55609;SDS011;41486;52.502;13.486;2023-09-12T05:18:38;12.05;;;9.63;;
55609;SDS011;41486;52.502;13.486;2023-09-12T05:21:06;13.68;;;9.52;;
55609;SDS011;41486;52.502;13.486;2023-09-12T05:23:34;13.80;;;9.25;;
55609;SDS011;41486;52.502;13.486;2023-09-12T05:26:02;12.57;;;9.68;;
55609;SDS011;41486;52.502;13.486;2023-09-12T05:28:32;13.48;;;9.77;;
55609;SDS011;41486;52.502;13.486;2023-09-12T05:31:00;14.00;;;10.20;;
55609;SDS011;41486;52.502;13.486;2023-09-12T05:33:29;10.55;;;8.40;;
55609;SDS011;41486;52.502;13.486;2023-09-12T05:36:00;19.33;;;10.27;;
55609;SDS011;41486;52.502;13.486;2023-09-12T05:38:29;15.70;;;9.10;;
55609;SDS011;41486;52.502;13.486;2023-09-12T05:40:57;16.00;;;9.85;;
55609;SDS011;41486;52.502;13.486;2023-09-12T05:43:25;17.08;;;9.80;;
55609;SDS011;41486;52.502;13.486;2023-09-12T05:45:54;13.05;;;10.48;;
55609;SDS011;41486;52.502;13.486;2023-09-12T05:48:24;16.63;;;10.68;;
55609;SDS011;41486;52.502;13.486;2023-09-12T05:50:52;12.57;;;9.07;;
55609;SDS011;41486;52.502;13.486;2023-09-12T05:53:20;11.65;;;8.48;;
55609;SDS011;41486;52.502;13.486;2023-09-12T05:55:48;11.05;;;9.05;;
55609;SDS011;41486;52.502;13.486;2023-09-12T05:58:17;13.95;;;9.55;;
55609;SDS011;41486;52.502;13.486;2023-09-12T06:00:45;15.75;;;10.50;;
55609;SDS011;41486;52.502;13.486;2023-09-12T06:03:16;17.60;;;11.90;;
55609;SDS011;41486;52.502;13.486;2023-09-12T06:05:44;10.48;;;8.40;;
55609;SDS011;41486;52.502;13.486;2023-09-12T06:08:12;16.23;;;9.50;;
55609;SDS011;41486;52.502;13.486;2023-09-12T06:10:40;18.15;;;11.35;;
55609;SDS011;41486;52.502;13.486;2023-09-12T06:13:08;18.52;;;10.10;;
55609;SDS011;41486;52.502;13.486;2023-09-12T06:15:39;15.98;;;10.02;;
55609;SDS011;41486;52.502;13.486;2023-09-12T06:18:08;13.88;;;9.65;;
55609;SDS011;41486;52.502;13.486;2023-09-12T06:20:37;14.73;;;10.23;;
55609;SDS011;41486;52.502;13.486;2023-09-12T06:23:05;18.40;;;10.23;;
55609;SDS011;41486;52.502;13.486;2023-09-12T06:25:33;13.68;;;8.75;;
55609;SDS011;41486;52.502;13.486;2023-09-12T06:28:02;17.23;;;8.88;;
55609;SDS011;41486;52.502;13.486;2023-09-12T06:30:30;13.95;;;9.15;;
55609;SDS011;41486;52.502;13.486;2023-09-12T06:32:58;12.82;;;8.75;;
55609;SDS011;41486;52.502;13.486;2023-09-12T06:35:26;16.77;;;11.85;;
55609;SDS011;41486;52.502;13.486;2023-09-12T06:37:55;19.35;;;10.68;;
55609;SDS011;41486;52.502;13.486;2023-09-12T06:40:23;11.35;;;8.23;;
55609;SDS011;41486;52.502;13.486;2023-09-12T06:42:51;12.27;;;8.77;;
55609;SDS011;41486;52.502;13.486;2023-09-12T06:45:19;13.27;;;9.15;;
55609;SDS011;41486;52.502;13.486;2023-09-12T06:47:47;10.65;;;9.05;;
55609;SDS011;41486;52.502;13.486;2023-09-12T06:50:16;12.85;;;8.32;;
55609;SDS011;41486;52.502;13.486;2023-09-12T06:52:44;17.27;;;10.35;;
55609;SDS011;41486;52.502;13.486;2023-09-12T06:55:13;14.75;;;8.18;;
55609;SDS011;41486;52.502;13.486;2023-09-12T06:57:44;16.98;;;9.80;;
55609;SDS011;41486;52.502;13.486;2023-09-12T07:00:13;12.07;;;9.18;;
55609;SDS011;41486;52.502;13.486;2023-09-12T07:02:42;12.65;;;8.95;;
55609;SDS011;41486;52.502;13.486;2023-09-12T07:05:10;12.77;;;8.80;;
55609;SDS011;41486;52.502;13.486;2023-09-12T07:07:38;12.77;;;8.52;;
55609;SDS011;41486;52.502;13.486;2023-09-12T07:10:07;13.05;;;8.40;;
55609;SDS011;41486;52.502;13.486;2023-09-12T07:12:52;17.42;;;8.93;;
55609;SDS011;41486;52.502;13.486;2023-09-12T07:15:20;16.52;;;9.00;;
55609;SDS011;41486;52.502;13.486;2023-09-12T07:17:48;17.65;;;7.97;;
55609;SDS011;41486;52.502;13.486;2023-09-12T07:20:17;12.68;;;8.07;;
55609;SDS011;41486;52.502;13.486;2023-09-12T07:22:46;15.60;;;8.48;;
55609;SDS011;41486;52.502;13.486;2023-09-12T07:25:14;14.82;;;8.43;;
55609;SDS011;41486;52.502;13.486;2023-09-12T07:27:44;11.20;;;7.28;;
55609;SDS011;41486;52.502;13.486;2023-09-12T07:30:13;13.73;;;7.47;;
55609;SDS011;41486;52.502;13.486;2023-09-12T07:32:42;18.48;;;11.07;;
55609;SDS011;41486;52.502;13.486;2023-09-12T07:35:10;11.63;;;6.97;;
55609;SDS011;41486;52.502;13.486;2023-09-12T07:37:38;16.25;;;7.78;;
55609;SDS011;41486;52.502;13.486;2023-09-12T07:40:07;11.57;;;6.43;;
55609;SDS011;41486;52.502;13.486;2023-09-12T07:42:37;8.77;;;6.20;;
55609;SDS011;41486;52.502;13.486;2023-09-12T07:45:06;11.80;;;6.30;;
55609;SDS011;41486;52.502;13.486;2023-09-12T07:47:36;10.35;;;6.18;;
55609;SDS011;41486;52.502;13.486;2023-09-12T07:50:04;6.70;;;5.57;;
55609;SDS011;41486;52.502;13.486;2023-09-12T07:52:33;9.68;;;5.70;;
55609;SDS011;41486;52.502;13.486;2023-09-12T07:55:02;9.27;;;5.38;;
55609;SDS011;41486;52.502;13.486;2023-09-12T07:57:30;10.50;;;4.97;;
55609;SDS011;41486;52.502;13.486;2023-09-12T07:59:58;11.57;;;5.80;;
55609;SDS011;41486;52.502;13.486;2023-09-12T08:02:38;10.20;;;5.75;;
55609;SDS011;41486;52.502;13.486;2023-09-12T08:05:07;9.90;;;6.40;;
55609;SDS011;41486;52.502;13.486;2023-09-12T08:07:35;9.73;;;6.60;;
55609;SDS011;41486;52.502;13.486;2023-09-12T08:10:04;9.50;;;5.72;;
55609;SDS011;41486;52.502;13.486;2023-09-12T08:12:33;10.85;;;5.80;;
55609;SDS011;41486;52.502;13.486;2023-09-12T08:15:05;9.90;;;5.03;;
55609;SDS011;41486;52.502;13.486;2023-09-12T08:17:34;20.02;;;6.55;;
55609;SDS011;41486;52.502;13.486;2023-09-12T08:20:04;8.02;;;4.95;;
55609;SDS011;41486;52.502;13.486;2023-09-12T08:22:33;9.77;;;5.13;;
55609;SDS011;41486;52.502;13.486;2023-09-12T08:25:01;11.95;;;5.40;;
55609;SDS011;41486;52.502;13.486;2023-09-12T08:27:30;10.98;;;5.07;;
55609;SDS011;41486;52.502;13.486;2023-09-12T08:29:58;8.40;;;5.43;;
55609;SDS011;41486;52.502;13.486;2023-09-12T08:32:26;11.05;;;5.70;;
55609;SDS011;41486;52.502;13.486;2023-09-12T08:34:54;10.68;;;5.15;;
55609;SDS011;41486;52.502;13.486;2023-09-12T08:37:23;7.53;;;5.03;;
55609;SDS011;41486;52.502;13.486;2023-09-12T08:39:52;13.40;;;5.18;;
55609;SDS011;41486;52.502;13.486;2023-09-12T08:42:25;6.28;;;4.50;;
55609;SDS011;41486;52.502;13.486;2023-09-12T08:44:54;10.23;;;4.47;;
55609;SDS011;41486;52.502;13.486;2023-09-12T08:47:23;8.52;;;4.47;;
55609;SDS011;41486;52.502;13.486;2023-09-12T08:49:53;9.88;;;4.40;;
55609;SDS011;41486;52.502;13.486;2023-09-12T08:52:23;8.55;;;4.60;;
55609;SDS011;41486;52.502;13.486;2023-09-12T08:54:51;11.57;;;4.05;;
55609;SDS011;41486;52.502;13.486;2023-09-12T08:57:19;12.35;;;4.25;;
55609;SDS011;41486;52.502;13.486;2023-09-12T08:59:48;11.98;;;4.35;;
55609;SDS011;41486;52.502;13.486;2023-09-12T09:02:17;8.50;;;4.20;;
55609;SDS011;41486;52.502;13.486;2023-09-12T09:04:46;10.20;;;4.03;;
55609;SDS011;41486;52.502;13.486;2023-09-12T09:07:18;6.68;;;3.50;;
55609;SDS011;41486;52.502;13.486;2023-09-12T09:09:49;14.38;;;4.00;;
55609;SDS011;41486;52.502;13.486;2023-09-12T09:12:20;11.00;;;3.88;;
55609;SDS011;41486;52.502;13.486;2023-09-12T09:14:48;6.40;;;3.33;;
55609;SDS011;41486;52.502;13.486;2023-09-12T09:17:16;10.15;;;3.58;;
55609;SDS011;41486;52.502;13.486;2023-09-12T09:20:01;8.63;;;3.15;;
55609;SDS011;41486;52.502;13.486;2023-09-12T09:22:31;7.28;;;3.30;;
55609;SDS011;41486;52.502;13.486;2023-09-12T09:25:10;9.15;;;3.47;;
55609;SDS011;41486;52.502;13.486;2023-09-12T09:27:40;7.00;;;4.07;;
55609;SDS011;41486;52.502;13.486;2023-09-12T09:30:09;9.93;;;3.65;;
55609;SDS011;41486;52.502;13.486;2023-09-12T09:32:37;8.45;;;3.45;;
55609;SDS011;41486;52.502;13.486;2023-09-12T09:35:06;11.02;;;3.83;;
55609;SDS011;41486;52.502;13.486;2023-09-12T09:37:35;7.28;;;3.40;;
55609;SDS011;41486;52.502;13.486;2023-09-12T09:40:13;6.10;;;3.25;;
55609;SDS011;41486;52.502;13.486;2023-09-12T09:42:41;6.78;;;3.25;;
55609;SDS011;41486;52.502;13.486;2023-09-12T09:45:10;5.32;;;3.40;;
55609;SDS011;41486;52.502;13.486;2023-09-12T09:47:38;9.32;;;3.42;;
55609;SDS011;41486;52.502;13.486;2023-09-12T09:50:07;10.38;;;4.03;;
55609;SDS011;41486;52.502;13.486;2023-09-12T09:52:35;9.80;;;4.47;;
55609;SDS011;41486;52.502;13.486;2023-09-12T09:55:04;12.60;;;4.47;;
55609;SDS011;41486;52.502;13.486;2023-09-12T09:57:37;12.25;;;3.88;;
55609;SDS011;41486;52.502;13.486;2023-09-12T10:00:06;8.98;;;4.43;;
55609;SDS011;41486;52.502;13.486;2023-09-12T10:02:41;8.30;;;4.50;;
55609;SDS011;41486;52.502;13.486;2023-09-12T10:05:11;7.03;;;4.25;;
55609;SDS011;41486;52.502;13.486;2023-09-12T10:07:45;10.10;;;4.38;;
55609;SDS011;41486;52.502;13.486;2023-09-12T10:10:16;10.75;;;4.20;;
55609;SDS011;41486;52.502;13.486;2023-09-12T10:12:49;9.75;;;4.05;;
55609;SDS011;41486;52.502;13.486;2023-09-12T10:15:19;12.05;;;4.50;;
55609;SDS011;41486;52.502;13.486;2023-09-12T10:17:51;11.15;;;4.28;;
55609;SDS011;41486;52.502;13.486;2023-09-12T10:20:24;9.30;;;4.25;;
55609;SDS011;41486;52.502;13.486;2023-09-12T10:22:59;12.82;;;4.72;;
55609;SDS011;41486;52.502;13.486;2023-09-12T10:25:35;10.48;;;5.05;;
55609;SDS011;41486;52.502;13.486;2023-09-12T10:28:06;14.98;;;4.95;;
55609;SDS011;41486;52.502;13.486;2023-09-12T10:30:34;10.27;;;5.10;;
55609;SDS011;41486;52.502;13.486;2023-09-12T10:33:04;8.27;;;5.15;;
55609;SDS011;41486;52.502;13.486;2023-09-12T10:35:33;9.07;;;4.82;;
55609;SDS011;41486;52.502;13.486;2023-09-12T10:38:02;10.63;;;4.68;;
55609;SDS011;41486;52.502;13.486;2023-09-12T10:40:33;7.50;;;4.72;;
55609;SDS011;41486;52.502;13.486;2023-09-12T10:43:11;10.93;;;5.65;;
55609;SDS011;41486;52.502;13.486;2023-09-12T10:45:41;10.77;;;5.32;;
55609;SDS011;41486;52.502;13.486;2023-09-12T10:48:10;14.50;;;5.05;;
55609;SDS011;41486;52.502;13.486;2023-09-12T10:50:39;9.65;;;4.57;;
55609;SDS011;41486;52.502;13.486;2023-09-12T10:53:09;12.45;;;4.88;;
55609;SDS011;41486;52.502;13.486;2023-09-12T10:55:38;10.82;;;3.75;;
55609;SDS011;41486;52.502;13.486;2023-09-12T10:58:07;13.18;;;4.95;;
55609;SDS011;41486;52.502;13.486;2023-09-12T11:00:38;11.98;;;5.13;;
55609;SDS011;41486;52.502;13.486;2023-09-12T11:06:04;11.45;;;5.38;;
55609;SDS011;41486;52.502;13.486;2023-09-12T11:08:35;5.45;;;4.28;;
55609;SDS011;41486;52.502;13.486;2023-09-12T11:11:18;8.25;;;4.43;;
55609;SDS011;41486;52.502;13.486;2023-09-12T11:14:02;8.63;;;4.72;;
55609;SDS011;41486;52.502;13.486;2023-09-12T11:16:32;8.68;;;4.45;;
55609;SDS011;41486;52.502;13.486;2023-09-12T11:19:14;7.30;;;3.17;;
55609;SDS011;41486;52.502;13.486;2023-09-12T11:21:43;8.05;;;3.75;;
55609;SDS011;41486;52.502;13.486;2023-09-12T11:24:12;9.98;;;4.28;;
55609;SDS011;41486;52.502;13.486;2023-09-12T11:26:55;7.80;;;3.38;;
55609;SDS011;41486;52.502;13.486;2023-09-12T11:29:27;8.82;;;4.45;;
55609;SDS011;41486;52.502;13.486;2023-09-12T11:31:58;7.30;;;4.15;;
55609;SDS011;41486;52.502;13.486;2023-09-12T11:34:29;8.40;;;4.07;;
55609;SDS011;41486;52.502;13.486;2023-09-12T11:37:03;8.95;;;4.55;;
55609;SDS011;41486;52.502;13.486;2023-09-12T11:39:32;9.20;;;4.72;;
55609;SDS011;41486;52.502;13.486;2023-09-12T11:42:03;8.50;;;4.00;;
55609;SDS011;41486;52.502;13.486;2023-09-12T11:44:35;9.85;;;4.57;;
55609;SDS011;41486;52.502;13.486;2023-09-12T11:47:05;8.35;;;3.90;;
55609;SDS011;41486;52.502;13.486;2023-09-12T11:49:37;10.50;;;4.03;;
55609;SDS011;41486;52.502;13.486;2023-09-12T11:52:08;12.15;;;4.53;;
55609;SDS011;41486;52.502;13.486;2023-09-12T11:54:36;8.30;;;4.47;;
55609;SDS011;41486;52.502;13.486;2023-09-12T11:57:05;11.20;;;4.75;;
55609;SDS011;41486;52.502;13.486;2023-09-12T11:59:36;11.05;;;5.00;;
55609;SDS011;41486;52.502;13.486;2023-09-12T12:02:07;9.23;;;4.75;;
55609;SDS011;41486;52.502;13.486;2023-09-12T12:04:36;16.60;;;9.38;;
55609;SDS011;41486;52.502;13.486;2023-09-12T12:07:05;10.35;;;4.32;;
55609;SDS011;41486;52.502;13.486;2023-09-12T12:09:34;9.15;;;4.00;;
55609;SDS011;41486;52.502;13.486;2023-09-12T12:12:09;9.48;;;3.67;;
55609;SDS011;41486;52.502;13.486;2023-09-12T12:14:38;8.10;;;4.22;;
55609;SDS011;41486;52.502;13.486;2023-09-12T12:17:09;7.40;;;4.30;;
55609;SDS011;41486;52.502;13.486;2023-09-12T12:19:38;5.70;;;3.60;;
55609;SDS011;41486;52.502;13.486;2023-09-12T12:22:06;7.25;;;3.95;;
55609;SDS011;41486;52.502;13.486;2023-09-12T12:24:36;10.13;;;3.97;;
55609;SDS011;41486;52.502;13.486;2023-09-12T12:27:06;6.32;;;3.53;;
55609;SDS011;41486;52.502;13.486;2023-09-12T12:29:35;6.55;;;3.60;;
55609;SDS011;41486;52.502;13.486;2023-09-12T12:32:06;7.97;;;3.67;;
55609;SDS011;41486;52.502;13.486;2023-09-12T12:34:37;7.97;;;3.70;;
55609;SDS011;41486;52.502;13.486;2023-09-12T12:37:28;4.82;;;3.38;;
55609;SDS011;41486;52.502;13.486;2023-09-12T12:39:58;6.65;;;3.50;;
55609;SDS011;41486;52.502;13.486;2023-09-12T12:42:32;10.45;;;3.70;;
55609;SDS011;41486;52.502;13.486;2023-09-12T12:45:19;6.28;;;3.67;;
55609;SDS011;41486;52.502;13.486;2023-09-12T12:47:50;6.38;;;3.72;;
55609;SDS011;41486;52.502;13.486;2023-09-12T12:50:21;9.65;;;3.85;;
55609;SDS011;41486;52.502;13.486;2023-09-12T12:52:49;5.60;;;3.80;;
55609;SDS011;41486;52.502;13.486;2023-09-12T12:55:17;6.00;;;3.47;;
55609;SDS011;41486;52.502;13.486;2023-09-12T12:57:48;9.25;;;4.00;;
55609;SDS011;41486;52.502;13.486;2023-09-12T13:00:17;12.10;;;3.10;;
55609;SDS011;41486;52.502;13.486;2023-09-12T13:02:46;8.27;;;3.92;;
55609;SDS011;41486;52.502;13.486;2023-09-12T13:05:26;9.05;;;3.40;;
55609;SDS011;41486;52.502;13.486;2023-09-12T13:07:54;5.43;;;3.25;;
55609;SDS011;41486;52.502;13.486;2023-09-12T13:10:23;9.57;;;3.33;;
55609;SDS011;41486;52.502;13.486;2023-09-12T13:12:51;8.60;;;3.38;;
55609;SDS011;41486;52.502;13.486;2023-09-12T13:15:19;5.82;;;3.25;;
55609;SDS011;41486;52.502;13.486;2023-09-12T13:17:47;8.77;;;3.80;;
55609;SDS011;41486;52.502;13.486;2023-09-12T13:20:15;6.50;;;3.35;;
55609;SDS011;41486;52.502;13.486;2023-09-12T13:22:46;10.07;;;3.75;;
55609;SDS011;41486;52.502;13.486;2023-09-12T13:25:16;7.07;;;3.00;;
55609;SDS011;41486;52.502;13.486;2023-09-12T13:27:44;9.10;;;3.65;;
55609;SDS011;41486;52.502;13.486;2023-09-12T13:30:12;8.38;;;3.60;;
55609;SDS011;41486;52.502;13.486;2023-09-12T13:32:40;6.95;;;3.50;;
55609;SDS011;41486;52.502;13.486;2023-09-12T13:35:08;4.13;;;3.13;;
55609;SDS011;41486;52.502;13.486;2023-09-12T13:37:38;15.50;;;8.63;;
55609;SDS011;41486;52.502;13.486;2023-09-12T13:40:08;8.23;;;3.85;;
55609;SDS011;41486;52.502;13.486;2023-09-12T13:42:37;7.68;;;2.90;;
55609;SDS011;41486;52.502;13.486;2023-09-12T13:45:06;7.30;;;3.55;;
55609;SDS011;41486;52.502;13.486;2023-09-12T13:47:35;6.47;;;3.17;;
55609;SDS011;41486;52.502;13.486;2023-09-12T13:50:04;5.97;;;3.28;;
55609;SDS011;41486;52.502;13.486;2023-09-12T13:52:33;8.40;;;3.17;;
55609;SDS011;41486;52.502;13.486;2023-09-12T13:55:01;8.60;;;3.90;;
55609;SDS011;41486;52.502;13.486;2023-09-12T13:57:31;7.03;;;3.00;;
55609;SDS011;41486;52.502;13.486;2023-09-12T14:00:11;6.70;;;3.20;;
55609;SDS011;41486;52.502;13.486;2023-09-12T14:02:39;7.88;;;3.38;;
55609;SDS011;41486;52.502;13.486;2023-09-12T14:05:08;9.27;;;3.70;;
55609;SDS011;41486;52.502;13.486;2023-09-12T14:07:40;7.30;;;4.22;;
55609;SDS011;41486;52.502;13.486;2023-09-12T14:10:08;7.90;;;3.42;;
55609;SDS011;41486;52.502;13.486;2023-09-12T14:12:47;10.57;;;3.50;;
55609;SDS011;41486;52.502;13.486;2023-09-12T14:15:15;10.10;;;3.50;;
55609;SDS011;41486;52.502;13.486;2023-09-12T14:17:44;8.18;;;4.88;;
55609;SDS011;41486;52.502;13.486;2023-09-12T14:20:22;9.60;;;4.30;;
55609;SDS011;41486;52.502;13.486;2023-09-12T14:22:50;6.00;;;3.88;;
55609;SDS011;41486;52.502;13.486;2023-09-12T14:25:18;12.35;;;4.10;;
55609;SDS011;41486;52.502;13.486;2023-09-12T14:27:48;12.05;;;4.95;;
55609;SDS011;41486;52.502;13.486;2023-09-12T14:30:16;12.13;;;4.35;;
55609;SDS011;41486;52.502;13.486;2023-09-12T14:32:47;10.95;;;3.90;;
55609;SDS011;41486;52.502;13.486;2023-09-12T14:35:15;9.38;;;4.45;;
55609;SDS011;41486;52.502;13.486;2023-09-12T14:37:43;8.60;;;4.05;;
55609;SDS011;41486;52.502;13.486;2023-09-12T14:40:12;7.45;;;4.28;;
55609;SDS011;41486;52.502;13.486;2023-09-12T14:42:43;9.98;;;3.80;;
55609;SDS011;41486;52.502;13.486;2023-09-12T14:45:12;6.28;;;3.47;;
55609;SDS011;41486;52.502;13.486;2023-09-12T14:47:41;11.00;;;4.93;;